This is the latest recevied weather packets stored in our database for station/object N4JTC. If no packets are shown the sender has not sent any weather packets the latest 1 day(s).
| Time | Temp. | Humidity | Pressure | Rain* | Wind** | Luminosity | Snow |
|---|---|---|---|---|---|---|---|
| 1778082603 | 26.67° C | 79% | 1017.7 hPa | 0 mm | - | 996 W/m² | - |
| 1778080803 | 26.11° C | 79% | 1017.4 hPa | 0 mm | - | 551 W/m² | - |
| 1778079903 | 25.56° C | 80% | 1017.2 hPa | 0 mm | - | 301 W/m² | - |
| 1778075703 | 25.56° C | 82% | 1016.8 hPa | 0 mm | - | 202 W/m² | - |
| 1778073904 | 25° C | 86% | 1016.4 hPa | 0 mm | - | 213 W/m² | - |
| 1778073303 | 23.89° C | 87% | 1016.2 hPa | 0 mm | - | 173 W/m² | - |
| 1778072103 | 23.33° C | 90% | 1016.1 hPa | 0 mm | - | 96 W/m² | - |
| 1778070003 | 21.67° C | 95% | 1015.7 hPa | 0 mm | - | 97 W/m² | - |
| 1778069703 | 21.67° C | 95% | 1015.5 hPa | 0 mm | - | 92 W/m² | - |
| 1778068203 | 21.67° C | 94% | 1015.1 hPa | 0 mm | - | 53 W/m² | - |
| 1778066104 | 22.22° C | 95% | 1014.7 hPa | 0 mm | - | 12 W/m² | - |
| 1778065804 | 22.22° C | 95% | 1014.7 hPa | 0 mm | - | 9 W/m² | - |
| 1778064307 | 22.22° C | 95% | 1014.6 hPa | 0 mm | - | 0 W/m² | - |
| 1778060703 | 22.22° C | 94% | 1014.4 hPa | 0 mm | - | 0 W/m² | - |
| 1778056503 | 22.22° C | 93% | 1014.5 hPa | 0 mm | - | 0 W/m² | - |
| 1778056204 | 22.22° C | 93% | 1014.4 hPa | 0 mm | - | 0 W/m² | - |
| 1778055903 | 22.22° C | 93% | 1014.8 hPa | 0 mm | - | 0 W/m² | - |
| 1778054103 | 22.22° C | 93% | 1014.9 hPa | 0 mm | - | 0 W/m² | - |
| 1778051703 | 22.22° C | 93% | 1015 hPa | 0 mm | - | 0 W/m² | - |
| 1778048103 | 22.22° C | 93% | 1015.2 hPa | 0 mm | - | 0 W/m² | - |
| 1778046303 | 22.22° C | 94% | 1015.7 hPa | 0 mm | - | 0 W/m² | - |
| 1778043303 | 22.22° C | 93% | 1015.8 hPa | 0 mm | - | 0 W/m² | - |
| 1778043003 | 22.22° C | 93% | 1015.7 hPa | 0 mm | - | 0 W/m² | - |
| 1778041503 | 22.22° C | 93% | 1016.1 hPa | 0 mm | - | 0 W/m² | - |
| 1778041204 | 22.22° C | 93% | 1016 hPa | 0 mm | - | 0 W/m² | - |
* Rain latest hour (hover to see other rain measurements)
** Current wind speed in m/s (hover to see current wind gust speed)